Time;durP1;ratioP1;P1;durP2;ratioP2;P2;SDS_P1;SDS_P2;PMS_P1;PMS_P2;Temp;Humidity;BMP_temperature;BMP_pressure;BME280_temperature;BME280_humidity;BME280_pressure;Samples;Min_cycle;Max_cycle;Signal;HPM_P1;HPM_P2
2023/12/21 00:02:02;;;;;;;12.30;4.90;;;;;;;7.57;100.00;100705.91;4975223;28;20065;-93
2023/12/21 00:04:27;;;;;;;9.73;5.20;;;;;;;7.57;100.00;100702.47;4981581;23;20047;-94
2023/12/21 00:06:52;;;;;;;9.07;4.53;;;;;;;7.61;100.00;100692.97;4975514;28;20041;-92
2023/12/21 00:09:30;;;;;;;6.60;4.40;;;;;;;7.62;100.00;100682.63;4975127;28;20066;-93
2023/12/21 00:11:55;;;;;;;11.02;4.43;;;;;;;7.65;100.00;100672.28;4975211;28;20030;-93
2023/12/21 00:14:27;;;;;;;11.10;5.20;;;;;;;7.59;100.00;100664.59;4974887;28;20435;-92
2023/12/21 00:17:01;;;;;;;11.60;4.40;;;;;;;7.56;100.00;100649.09;4975413;28;20026;-93
2023/12/21 00:19:33;;;;;;;9.90;4.45;;;;;;;7.61;100.00;100659.41;4975582;28;20077;-93
2023/12/21 00:21:58;;;;;;;8.90;4.40;;;;;;;7.58;100.00;100649.97;4975267;28;20031;-92
2023/12/21 00:24:23;;;;;;;11.50;4.80;;;;;;;7.66;100.00;100653.34;4975334;28;20019;-92
2023/12/21 00:27:04;;;;;;;10.47;4.53;;;;;;;7.63;100.00;100649.94;4974969;28;20090;-92
2023/12/21 00:29:30;;;;;;;10.25;4.55;;;;;;;7.67;100.00;100654.19;4975355;28;20098;-93
2023/12/21 00:31:55;;;;;;;11.70;4.50;;;;;;;7.66;100.00;100649.88;4974912;28;20027;-93
2023/12/21 00:34:21;;;;;;;9.20;4.55;;;;;;;7.57;100.00;100625.84;4974619;28;20027;-93
2023/12/21 00:36:47;;;;;;;10.77;4.67;;;;;;;7.62;100.00;100632.72;4975031;28;20073;-93
2023/12/21 00:39:12;;;;;;;9.93;4.60;;;;;;;7.61;100.00;100636.16;4975509;28;20033;-92
2023/12/21 00:41:37;;;;;;;10.13;4.50;;;;;;;7.64;100.00;100633.56;4974910;28;20294;-93
2023/12/21 00:44:03;;;;;;;8.90;4.47;;;;;;;7.63;100.00;100629.25;4975053;28;20034;-93
2023/12/21 00:46:28;;;;;;;10.93;4.37;;;;;;;7.59;100.00;100607.78;4975224;28;20476;-92
2023/12/21 00:49:14;;;;;;;12.30;4.68;;;;;;;7.65;100.00;100609.47;4975339;28;20113;-94
2023/12/21 00:51:39;;;;;;;7.15;4.10;;;;;;;7.56;100.00;100587.97;4978989;28;20038;-93
2023/12/21 00:54:27;;;;;;;10.43;4.53;;;;;;;7.60;100.00;100595.69;4979017;28;20395;-93
2023/12/21 00:56:52;;;;;;;7.30;3.90;;;;;;;7.55;100.00;100583.66;4978777;28;20037;-92
2023/12/21 00:59:17;;;;;;;7.83;3.93;;;;;;;7.58;100.00;100582.81;4978817;28;20027;-93
2023/12/21 01:01:55;;;;;;;10.83;3.87;;;;;;;7.57;100.00;100587.09;4978608;28;20049;-93
2023/12/21 01:04:20;;;;;;;8.52;4.50;;;;;;;7.61;100.00;100584.50;4981832;28;20925;-93
2023/12/21 01:06:45;;;;;;;12.50;5.27;;;;;;;7.65;100.00;100584.47;4997809;28;20031;-92
2023/12/21 01:09:26;;;;;;;10.30;4.80;;;;;;;7.53;100.00;100561.31;4998289;28;20038;-93
2023/12/21 01:11:51;;;;;;;10.60;4.30;;;;;;;7.50;100.00;100551.88;4997863;28;20538;-93
2023/12/21 01:14:22;;;;;;;12.33;4.83;;;;;;;7.54;100.00;100553.53;4998405;28;20029;-92
2023/12/21 01:16:48;;;;;;;12.00;4.60;;;;;;;7.61;100.00;100566.44;4997713;28;20053;-93
2023/12/21 01:19:13;;;;;;;8.63;4.27;;;;;;;7.59;100.00;100550.94;4998016;28;20050;-93
2023/12/21 01:21:43;;;;;;;10.73;4.27;;;;;;;7.53;100.00;100538.94;4997315;28;20150;-91
2023/12/21 01:24:08;;;;;;;10.13;4.70;;;;;;;7.48;100.00;100545.00;4995572;28;20027;-93
2023/12/21 01:26:34;;;;;;;9.13;4.33;;;;;;;7.58;100.00;100560.41;4997758;28;20482;-92
2023/12/21 01:29:11;;;;;;;9.83;4.73;;;;;;;7.62;100.00;100561.25;4997548;28;20049;-92
2023/12/21 01:31:36;;;;;;;7.97;4.47;;;;;;;7.58;100.00;100542.34;4997253;28;20081;-93
2023/12/21 01:34:05;;;;;;;9.80;4.43;;;;;;;7.63;100.00;100554.38;4997365;28;20062;-92
2023/12/21 01:36:44;;;;;;;8.90;4.10;;;;;;;7.58;100.00;100528.56;4997682;28;20030;-92
2023/12/21 01:39:09;;;;;;;6.63;3.67;;;;;;;7.57;100.00;100517.38;4997736;28;20471;-93
2023/12/21 01:41:35;;;;;;;11.77;4.70;;;;;;;7.57;100.00;100521.69;4997512;28;20030;-93
2023/12/21 01:44:02;;;;;;;9.73;4.33;;;;;;;7.65;100.00;100537.13;4997469;28;20022;-92
2023/12/21 01:46:43;;;;;;;;;;;;;;;7.64;100.00;100530.25;4997519;28;20030;-93
2023/12/21 01:49:09;;;;;;;10.40;4.35;;;;;;;7.57;100.00;100516.53;4997514;28;20024;-91
2023/12/21 01:51:46;;;;;;;10.47;4.57;;;;;;;7.60;100.00;100523.38;4996937;28;20054;-92
2023/12/21 01:54:12;;;;;;;12.80;4.80;;;;;;;7.62;100.00;100511.31;4996937;28;20023;-93
2023/12/21 01:56:49;;;;;;;9.93;4.80;;;;;;;7.54;100.00;100501.88;4997040;28;20078;-93
2023/12/21 01:59:15;;;;;;;10.88;4.82;;;;;;;7.56;100.00;100491.56;4998216;28;20054;-92
2023/12/21 02:02:12;;;;;;;11.20;4.63;;;;;;;7.65;100.00;100519.06;4996364;28;20026;-93
2023/12/21 02:04:51;;;;;;;10.35;5.50;;;;;;;7.58;100.00;100507.91;4997206;28;20057;-92
2023/12/21 02:07:36;;;;;;;11.43;5.72;;;;;;;7.56;100.00;100507.91;4997814;28;20113;-93
2023/12/21 02:10:01;;;;;;;11.18;5.22;;;;;;;7.57;100.00;100512.19;4998153;28;20042;-92
2023/12/21 02:12:30;;;;;;;11.37;5.37;;;;;;;7.58;100.00;100515.66;4997054;28;20024;-92
2023/12/21 02:15:11;;;;;;;9.88;4.95;;;;;;;7.52;100.00;100516.56;4996887;28;20030;-92
2023/12/21 02:20:24;;;;;;;11.52;5.85;;;;;;;7.58;100.00;100501.00;4996893;28;20036;-92
2023/12/21 02:23:03;;;;;;;11.60;5.43;;;;;;;7.60;100.00;100505.31;4996452;28;20022;-92
2023/12/21 02:25:29;;;;;;;13.13;5.40;;;;;;;7.58;100.00;100487.25;4995874;28;20030;-93
2023/12/21 02:28:17;;;;;;;12.23;5.37;;;;;;;7.65;100.00;100490.63;4976546;28;20045;-92
2023/12/21 02:30:54;;;;;;;11.25;5.57;;;;;;;7.53;100.00;100471.81;4977043;28;20023;-92
2023/12/21 02:33:20;;;;;;;10.27;5.35;;;;;;;7.55;100.00;100454.53;4973933;28;20058;-92
2023/12/21 02:35:45;;;;;;;13.83;5.67;;;;;;;7.55;100.00;100454.53;4976647;28;20491;-91
2023/12/21 02:38:10;;;;;;;10.13;4.88;;;;;;;7.60;100.00;100459.66;4976898;28;20023;-91
2023/12/21 02:40:44;;;;;;;9.00;4.97;;;;;;;7.55;100.00;100439.03;4976267;28;20023;-90
2023/12/21 02:43:10;;;;;;;8.40;5.00;;;;;;;7.63;100.00;100453.63;4982984;23;20051;-91
2023/12/21 02:45:35;;;;;;;12.57;5.80;;;;;;;7.62;100.00;100451.91;4976702;28;20173;-91
2023/12/21 02:48:00;;;;;;;15.23;6.10;;;;;;;7.63;100.00;100441.56;4976529;28;20029;-91
2023/12/21 02:50:26;;;;;;;10.25;5.57;;;;;;;7.66;100.00;100448.41;4976734;28;20027;-91
2023/12/21 02:53:11;;;;;;;9.53;5.07;;;;;;;7.70;100.00;100460.44;4976417;28;20031;-91
2023/12/21 02:55:36;;;;;;;8.07;4.43;;;;;;;7.58;100.00;100446.78;4976730;28;20026;-91
2023/12/21 02:58:02;;;;;;;13.63;5.23;;;;;;;7.62;100.00;100442.44;4995340;28;20605;-91
2023/12/21 03:00:36;;;;;;;8.10;4.63;;;;;;;7.66;100.00;100422.59;4996007;28;20106;-90
2023/12/21 03:03:01;;;;;;;12.43;4.90;;;;;;;7.58;100.00;100420.09;4995774;28;20023;-91
2023/12/21 03:05:26;;;;;;;11.63;4.80;;;;;;;7.68;100.00;100436.34;4995820;28;20030;-90
2023/12/21 03:08:07;;;;;;;14.20;5.37;;;;;;;7.66;100.00;100427.75;4995794;28;20034;-90
2023/12/21 03:10:33;;;;;;;10.98;5.07;;;;;;;7.68;100.00;100424.31;4995510;28;20049;-90
2023/12/21 03:12:58;;;;;;;11.60;5.03;;;;;;;7.68;100.00;100416.56;4995005;28;20439;-90
2023/12/21 03:15:23;;;;;;;8.73;4.33;;;;;;;7.65;100.00;100400.25;4995693;28;20371;-90
2023/12/21 03:18:10;;;;;;;13.90;5.07;;;;;;;7.70;100.00;100380.38;4995166;28;20386;-90
2023/12/21 03:20:35;;;;;;;8.98;4.47;;;;;;;7.66;100.00;100348.56;4995494;28;20022;-91
2023/12/21 03:23:01;;;;;;;12.83;5.23;;;;;;;7.58;100.00;100330.56;4995204;28;20027;-92
2023/12/21 03:25:41;;;;;;;9.23;4.40;;;;;;;7.60;100.00;100329.69;4995371;28;20161;-90
2023/12/21 03:28:16;;;;;;;11.27;4.55;;;;;;;7.70;100.00;100334.75;4995451;28;20030;-91
2023/12/21 03:30:43;;;;;;;9.65;4.47;;;;;;;7.56;100.00;100318.53;4995213;28;20030;-90
2023/12/21 03:33:23;;;;;;;10.30;4.38;;;;;;;7.70;100.00;100336.47;4995662;28;20027;-91
2023/12/21 03:35:48;;;;;;;11.15;4.32;;;;;;;7.61;100.00;100323.66;4995754;28;20014;-90
2023/12/21 03:38:13;;;;;;;10.47;4.73;;;;;;;7.66;100.00;100321.84;4995908;28;20089;-91
2023/12/21 03:40:51;;;;;;;9.30;4.50;;;;;;;7.70;100.00;100321.84;4985522;23;20055;-91
2023/12/21 03:43:16;;;;;;;8.93;4.35;;;;;;;7.62;100.00;100305.53;4975682;28;20031;-91
2023/12/21 03:45:47;;;;;;;9.77;4.43;;;;;;;7.62;100.00;100294.38;4975514;28;20392;-91
2023/12/21 03:48:12;;;;;;;12.50;4.50;;;;;;;7.71;100.00;100322.66;4975960;28;20114;-91
2023/12/21 03:50:40;;;;;;;11.73;4.70;;;;;;;7.71;100.00;100302.00;4975887;28;20118;-90
2023/12/21 03:53:14;;;;;;;10.68;4.30;;;;;;;7.72;100.00;100299.41;4975573;28;20073;-90
2023/12/21 03:55:43;;;;;;;10.35;4.78;;;;;;;7.65;100.00;100302.94;4976034;28;20031;-92
2023/12/21 03:58:10;;;;;;;12.98;4.72;;;;;;;7.62;100.00;100278.88;4976319;28;20114;-91
2023/12/21 04:00:51;;;;;;;11.93;4.65;;;;;;;7.68;100.00;100284.81;4976213;28;20429;-91
2023/12/21 04:03:16;;;;;;;11.95;4.40;;;;;;;7.71;100.00;100273.59;4958365;28;20439;-91
2023/12/21 04:05:44;;;;;;;11.40;4.30;;;;;;;7.73;100.00;100285.59;4975456;28;20026;-93
2023/12/21 04:08:10;;;;;;;11.48;4.00;;;;;;;7.66;100.00;100267.63;4976063;28;20030;-91
2023/12/21 04:10:37;;;;;;;12.30;4.73;;;;;;;7.71;100.00;100279.59;4975776;28;20026;-92
2023/12/21 04:13:10;;;;;;;13.18;4.97;;;;;;;7.66;100.00;100262.44;4975149;28;20114;-92
2023/12/21 04:15:35;;;;;;;11.48;4.57;;;;;;;7.77;100.00;100264.91;4974724;28;20062;-91
2023/12/21 04:18:00;;;;;;;10.37;4.33;;;;;;;7.77;100.00;100259.75;4998821;23;20506;-91
2023/12/21 04:20:26;;;;;;;9.63;4.50;;;;;;;7.80;100.00;100247.63;4994261;28;20033;-91
2023/12/21 04:23:09;;;;;;;9.63;4.30;;;;;;;7.79;100.00;100250.25;4994379;28;20104;-92
2023/12/21 04:25:34;;;;;;;13.70;4.63;;;;;;;7.76;100.00;100232.19;4994406;28;20101;-93
2023/12/21 04:28:01;;;;;;;9.70;4.53;;;;;;;7.82;100.00;100232.97;4994705;28;20105;-92
2023/12/21 04:30:27;;;;;;;14.48;5.38;;;;;;;7.76;100.00;100217.56;4994675;28;20101;-92
2023/12/21 04:32:52;;;;;;;15.47;6.33;;;;;;;7.88;100.00;100226.88;4994206;28;20486;-92
2023/12/21 04:35:22;;;;;;;12.77;5.53;;;;;;;7.88;100.00;100217.38;4994399;28;20018;-91
2023/12/21 04:37:56;;;;;;;15.15;6.10;;;;;;;7.79;100.00;100177.91;4994598;28;20023;-92
2023/12/21 04:40:21;;;;;;;15.25;6.55;;;;;;;7.83;100.00;100167.53;4994930;28;20030;-92
2023/12/21 04:43:28;;;;;;;17.93;6.87;;;;;;;7.93;100.00;100183.75;4994403;28;20096;-92
2023/12/21 04:45:53;;;;;;;18.70;7.90;;;;;;;7.90;100.00;100181.19;4994361;28;20035;-92
2023/12/21 04:48:20;;;;;;;18.40;7.90;;;;;;;7.98;100.00;100192.28;4993936;28;20023;-93
2023/12/21 04:50:45;;;;;;;18.52;7.30;;;;;;;7.96;100.00;100164.75;4987437;28;20031;-92
2023/12/21 04:53:29;;;;;;;16.58;7.15;;;;;;;7.92;100.00;100153.63;4994648;28;20069;-93
2023/12/21 04:56:03;;;;;;;17.88;7.53;;;;;;;7.93;100.00;100136.38;4994565;28;20030;-91
2023/12/21 04:58:31;;;;;;;19.05;7.63;;;;;;;8.06;100.00;100139.59;4995081;28;20064;-91
2023/12/21 05:01:11;;;;;;;18.42;7.38;;;;;;;8.04;100.00;100121.53;4995023;28;20026;-92
2023/12/21 05:03:48;;;;;;;16.85;6.57;;;;;;;8.12;100.00;100142.94;4995101;28;20018;-93
2023/12/21 05:06:34;;;;;;;14.73;6.35;;;;;;;8.08;100.00;100114.59;4994781;28;20046;-92
2023/12/21 05:09:08;;;;;;;14.20;6.28;;;;;;;8.12;100.00;100118.84;4994956;28;20482;-91
2023/12/21 05:11:39;;;;;;;14.82;6.05;;;;;;;8.12;100.00;100127.44;4994928;28;20109;-92
2023/12/21 05:14:20;;;;;;;15.70;6.10;;;;;;;8.15;100.00;100127.38;4994942;28;20033;-93
2023/12/21 05:16:51;;;;;;;14.68;5.72;;;;;;;8.12;100.00;100129.19;4994548;28;20498;-92
2023/12/21 05:19:23;;;;;;;14.65;5.80;;;;;;;8.18;100.00;100129.94;4994489;28;20050;-92
2023/12/21 05:22:00;;;;;;;18.08;6.25;;;;;;;8.18;100.00;100127.34;4993814;28;20038;-94
2023/12/21 05:24:31;;;;;;;13.43;5.70;;;;;;;8.17;100.00;100127.34;4994318;28;20026;-93
2023/12/21 05:27:12;;;;;;;14.05;5.63;;;;;;;8.15;100.00;100105.88;4994891;28;20058;-93
2023/12/21 05:29:42;;;;;;;12.75;5.18;;;;;;;8.15;100.00;100092.94;4994641;28;20019;-94
2023/12/21 05:32:13;;;;;;;14.52;5.22;;;;;;;8.19;100.00;100079.94;4994855;28;20379;-94
2023/12/21 05:34:53;;;;;;;14.80;5.15;;;;;;;8.17;100.00;100068.78;4995013;28;20074;-93
2023/12/21 05:37:28;;;;;;;11.40;4.30;;;;;;;8.24;100.00;100090.19;4997460;28;20068;-92
2023/12/21 05:39:56;;;;;;;13.68;4.75;;;;;;;8.29;100.00;100084.94;4997958;28;20046;-93
2023/12/21 05:42:39;;;;;;;13.02;4.53;;;;;;;8.32;100.00;100077.97;4997652;28;20460;-94
2023/12/21 05:45:23;;;;;;;11.52;4.10;;;;;;;8.32;100.00;100087.47;4998398;28;20030;-95
2023/12/21 05:47:48;;;;;;;14.07;4.05;;;;;;;8.37;100.00;100090.81;4997535;28;20045;-95
2023/12/21 05:50:14;;;;;;;11.70;4.00;;;;;;;8.30;100.00;100089.25;4997640;28;20451;-94
2023/12/21 05:52:55;;;;;;;10.10;3.57;;;;;;;8.41;100.00;100094.19;4996977;28;20498;-92
2023/12/21 05:55:21;;;;;;;12.88;3.85;;;;;;;8.41;100.00;100105.41;4997045;28;20109;-92
2023/12/21 05:57:46;;;;;;;12.17;3.50;;;;;;;8.32;100.00;100090.91;4997396;28;20022;-92
2023/12/21 06:00:36;;;;;;;8.10;3.10;;;;;;;8.39;100.00;100101.16;4997334;28;20023;-93
2023/12/21 06:03:01;;;;;;;9.70;3.90;;;;;;;8.39;100.00;100099.41;4997472;28;20097;-92
2023/12/21 06:05:41;;;;;;;8.87;3.53;;;;;;;8.42;100.00;100101.94;4997058;28;20033;-95
2023/12/21 06:08:06;;;;;;;6.05;3.25;;;;;;;8.44;100.00;100107.94;4997194;28;20023;-94
2023/12/21 06:10:33;;;;;;;9.03;3.70;;;;;;;8.40;100.00;100080.44;4996997;28;20025;-93
2023/12/21 06:12:58;;;;;;;10.18;3.58;;;;;;;8.38;100.00;100084.78;4997015;28;20080;-93
2023/12/21 06:15:42;;;;;;;8.95;3.53;;;;;;;8.38;100.00;100087.34;4996900;28;20022;-94
2023/12/21 06:18:09;;;;;;;9.93;3.90;;;;;;;8.36;100.00;100078.78;4995099;28;20101;-94
2023/12/21 06:20:35;;;;;;;9.82;3.63;;;;;;;8.32;100.00;100064.22;4996798;28;20029;-93
2023/12/21 06:23:14;;;;;;;9.23;3.80;;;;;;;8.22;100.00;100036.84;4996874;28;20398;-92
2023/12/21 06:25:40;;;;;;;9.13;4.40;;;;;;;8.17;100.00;100027.41;4996474;28;20034;-93
2023/12/21 06:28:05;;;;;;;11.07;4.90;;;;;;;8.23;100.00;100036.78;4996650;28;20105;-93
2023/12/21 06:30:45;;;;;;;10.10;4.30;;;;;;;8.13;100.00;100024.91;4996728;28;20049;-93
2023/12/21 06:33:11;;;;;;;10.70;4.22;;;;;;;8.24;100.00;100051.41;5019629;23;20058;-93
2023/12/21 06:35:36;;;;;;;12.77;4.50;;;;;;;8.24;100.00;100068.66;4995908;28;20490;-92
2023/12/21 06:38:01;;;;;;;11.50;4.53;;;;;;;8.22;100.00;100052.34;5018955;23;20057;-91
2023/12/21 06:40:27;;;;;;;11.20;4.93;;;;;;;8.22;100.00;100031.66;4996518;28;20038;-92
2023/12/21 06:42:53;;;;;;;12.93;4.90;;;;;;;8.22;100.00;100036.84;4996509;28;20030;-92
2023/12/21 06:45:51;;;;;;;12.33;4.93;;;;;;;8.18;100.00;100042.03;4996084;28;20026;-91
2023/12/21 06:48:24;;;;;;;9.38;4.45;;;;;;;8.16;100.00;100042.97;4968783;28;20057;-92
2023/12/21 06:50:50;;;;;;;10.05;4.32;;;;;;;8.17;100.00;100026.53;4996027;28;20027;-91
2023/12/21 06:53:17;;;;;;;8.13;4.07;;;;;;;8.17;100.00;100023.97;4995778;28;20034;-90
2023/12/21 06:56:01;;;;;;;11.25;4.22;;;;;;;8.23;100.00;100026.44;4996135;28;20026;-90
2023/12/21 06:58:27;;;;;;;8.43;4.20;;;;;;;8.23;100.00;100004.91;4995844;28;20026;-90
2023/12/21 07:00:53;;;;;;;10.82;4.25;;;;;;;8.18;100.00;99989.47;4995415;28;20022;-89
2023/12/21 07:03:24;;;;;;;10.37;4.07;;;;;;;8.15;100.00;99980.06;4995595;28;20033;-92
2023/12/21 07:06:03;;;;;;;9.95;4.22;;;;;;;8.21;100.00;99988.59;4995718;28;20045;-91
2023/12/21 07:08:37;;;;;;;10.38;3.80;;;;;;;8.26;100.00;99966.06;4995911;28;20030;-92
2023/12/21 07:11:03;;;;;;;10.98;4.10;;;;;;;8.22;100.00;99960.13;4995827;28;20022;-92
2023/12/21 07:13:28;;;;;;;10.30;3.90;;;;;;;8.17;100.00;99952.47;4996258;28;20105;-93
2023/12/21 07:16:07;;;;;;;11.70;3.83;;;;;;;8.21;100.00;99947.25;4995673;28;20118;-94
2023/12/21 07:18:32;;;;;;;10.90;3.80;;;;;;;8.21;100.00;99942.91;4995931;28;20030;-92
2023/12/21 07:20:58;;;;;;;8.70;3.27;;;;;;;8.25;100.00;99952.31;4995891;28;20025;-90
2023/12/21 07:23:41;;;;;;;10.20;3.50;;;;;;;8.28;100.00;99947.06;4995409;28;20026;-93
2023/12/21 07:26:06;;;;;;;9.52;3.38;;;;;;;8.30;100.00;99939.28;4996222;28;20042;-90
2023/12/21 07:28:52;;;;;;;8.27;3.30;;;;;;;8.35;100.00;99930.56;4995384;28;20362;-90
2023/12/21 07:31:17;;;;;;;7.82;3.38;;;;;;;8.39;100.00;99930.50;4995276;28;20036;-92
2023/12/21 07:33:43;;;;;;;7.30;3.10;;;;;;;8.40;100.00;99924.41;4994802;28;20022;-93
2023/12/21 07:36:08;;;;;;;9.67;3.40;;;;;;;8.41;100.00;99923.53;4995149;28;20114;-92
2023/12/21 07:38:55;;;;;;;10.30;3.40;;;;;;;8.44;100.00;99913.13;4991956;28;20054;-94
2023/12/21 07:41:21;;;;;;;8.73;3.00;;;;;;;8.35;100.00;99884.03;4994879;28;20031;-94
2023/12/21 07:43:52;;;;;;;10.57;3.13;;;;;;;8.44;100.00;99882.13;4994589;28;20036;-93
2023/12/21 07:46:18;;;;;;;5.60;2.95;;;;;;;8.44;100.00;99898.50;4994152;28;20030;-93
2023/12/21 07:48:43;;;;;;;9.00;3.00;;;;;;;8.45;100.00;99891.56;4994288;28;20081;-94
2023/12/21 07:51:10;;;;;;;8.23;3.00;;;;;;;8.44;100.00;99895.91;4994465;28;20026;-94
2023/12/21 07:53:55;;;;;;;8.68;3.28;;;;;;;8.56;100.00;99899.09;4994125;28;20103;-94
2023/12/21 07:56:21;;;;;;;9.60;3.30;;;;;;;8.54;100.00;99888.81;4994316;28;20026;-94
2023/12/21 07:59:07;;;;;;;8.63;3.20;;;;;;;8.50;100.00;99880.28;4993596;28;20035;-94
2023/12/21 08:01:44;;;;;;;10.23;3.30;;;;;;;8.51;100.00;99883.69;4994337;28;20471;-93
2023/12/21 08:04:09;;;;;;;9.05;3.80;;;;;;;8.48;100.00;99876.88;4994213;28;20061;-92
2023/12/21 08:07:12;;;;;;;9.73;4.00;;;;;;;8.50;100.00;99877.69;4994055;28;20113;-91
2023/12/21 08:09:37;;;;;;;6.30;3.30;;;;;;;8.47;100.00;99872.56;4953217;29;20093;-91
2023/12/21 08:12:03;;;;;;;9.77;3.30;;;;;;;8.42;100.00;99863.19;4985300;28;20030;-92
2023/12/21 08:14:43;;;;;;;9.00;3.43;;;;;;;8.37;100.00;99857.28;4994103;28;20019;-92
2023/12/21 08:17:51;;;;;;;7.30;3.53;;;;;;;8.39;100.00;99868.44;4994232;28;20026;-92
2023/12/21 08:20:16;;;;;;;9.50;3.17;;;;;;;8.39;100.00;99869.28;4993925;28;20034;-92
2023/12/21 08:22:48;;;;;;;6.77;3.10;;;;;;;8.44;100.00;99864.00;4993498;28;20113;-90
2023/12/21 08:25:14;;;;;;;6.50;2.95;;;;;;;8.44;100.00;99857.13;4993987;28;20044;-90
2023/12/21 08:27:41;;;;;;;6.03;2.90;;;;;;;8.33;100.00;99848.75;4993907;28;20109;-91
2023/12/21 08:30:15;;;;;;;7.63;2.97;;;;;;;8.42;100.00;99855.44;4993866;28;20641;-92
2023/12/21 08:32:47;;;;;;;7.65;3.10;;;;;;;8.43;100.00;99849.38;4988539;28;20033;-92
2023/12/21 08:35:21;;;;;;;7.97;3.30;;;;;;;8.38;100.00;99841.72;4974502;28;20034;-91
2023/12/21 08:37:47;;;;;;;10.32;3.17;;;;;;;8.43;100.00;99845.06;4974064;28;20023;-89
2023/12/21 08:40:13;;;;;;;8.15;3.40;;;;;;;8.55;100.00;99856.06;4937647;28;1053589;-90
2023/12/21 08:42:38;;;;;;;8.27;3.20;;;;;;;8.40;100.00;99836.50;4974688;28;20042;-91
2023/12/21 08:45:04;;;;;;;6.80;3.30;;;;;;;8.47;100.00;99841.53;4975139;28;20056;-89
2023/12/21 08:47:40;;;;;;;8.70;3.00;;;;;;;8.52;100.00;99846.59;4975599;28;20059;-90
2023/12/21 08:50:28;;;;;;;8.48;3.30;;;;;;;8.43;100.00;99819.22;4965676;28;20139;-89
2023/12/21 08:52:53;;;;;;;7.35;2.90;;;;;;;8.53;100.00;99826.78;4955729;28;20038;-88
2023/12/21 08:55:19;;;;;;;8.53;3.43;;;;;;;8.51;100.00;99811.28;4955514;28;20516;-89
2023/12/21 08:57:46;;;;;;;6.73;3.40;;;;;;;8.44;100.00;99809.72;4955762;28;20062;-88
2023/12/21 09:00:29;;;;;;;4.57;2.90;;;;;;;8.44;100.00;99804.53;4975406;28;20480;-90
2023/12/21 09:03:13;;;;;;;6.95;3.05;;;;;;;8.57;100.00;99829.25;4975063;28;20031;-89
2023/12/21 09:05:53;;;;;;;6.03;2.90;;;;;;;8.53;100.00;99803.50;4973567;28;20097;-89
2023/12/21 09:08:18;;;;;;;7.00;3.05;;;;;;;8.53;100.00;99800.94;4975022;28;20163;-90
2023/12/21 09:10:48;;;;;;;9.90;3.00;;;;;;;8.64;100.00;99806.69;4976531;28;20047;-90
2023/12/21 09:13:32;;;;;;;6.05;2.80;;;;;;;8.59;100.00;99801.63;4979095;28;20015;-89
2023/12/21 09:15:58;;;;;;;5.40;2.90;;;;;;;8.57;100.00;99802.53;4978625;28;20019;-91
2023/12/21 09:18:47;;;;;;;6.03;2.73;;;;;;;8.58;100.00;99797.34;4978641;28;20379;-91
2023/12/21 09:21:24;;;;;;;5.55;2.60;;;;;;;8.69;100.00;99791.06;4978477;28;20038;-90
2023/12/21 09:23:55;;;;;;;4.93;2.80;;;;;;;8.76;100.00;99798.66;4977215;28;20043;-91
2023/12/21 09:26:20;;;;;;;10.40;2.90;;;;;;;8.83;100.00;99799.34;4994098;23;20047;-92
2023/12/21 09:28:46;;;;;;;7.47;3.07;;;;;;;8.85;100.00;99800.13;4998133;28;20052;-93
2023/12/21 09:31:11;;;;;;;7.17;2.73;;;;;;;8.83;100.00;99780.38;4998276;28;20467;-93
2023/12/21 09:33:49;;;;;;;5.57;2.60;;;;;;;8.78;100.00;99749.44;4997282;28;20054;-94
2023/12/21 09:36:16;;;;;;;6.25;2.30;;;;;;;8.96;100.00;99781.75;4997821;28;20026;-94
2023/12/21 09:38:42;;;;;;;6.38;2.30;;;;;;;8.96;100.00;99766.22;4997698;28;20033;-94
2023/12/21 09:41:44;;;;;;;8.47;2.30;;;;;;;9.00;100.00;99761.81;4998045;28;20030;-94
2023/12/21 09:44:17;;;;;;;9.98;2.30;;;;;;;8.95;100.00;99760.19;4996088;28;20052;-94
2023/12/21 09:50:48;;;;;;;6.95;2.00;;;;;;;9.07;100.00;99765.94;4998198;28;20049;-94
2023/12/21 09:53:35;;;;;;;7.47;1.77;;;;;;;9.12;100.00;99772.69;4998154;28;20038;-92
2023/12/21 09:56:01;;;;;;;8.57;1.95;;;;;;;9.04;100.00;99753.09;4997419;28;20037;-94
2023/12/21 09:58:46;;;;;;;4.80;1.73;;;;;;;9.09;100.00;99757.25;4998007;28;20022;-95
2023/12/21 10:01:24;;;;;;;5.13;1.90;;;;;;;9.15;100.00;99745.91;4998099;28;20089;-94
2023/12/21 10:03:59;;;;;;;7.57;2.00;;;;;;;9.19;100.00;99741.47;4997615;28;20054;-95
2023/12/21 10:06:24;;;;;;;13.40;2.20;;;;;;;9.30;100.00;99759.28;4997278;28;20454;-95
2023/12/21 10:09:15;;;;;;;8.40;2.03;;;;;;;9.32;100.00;99760.09;4997098;28;20057;-95
2023/12/21 10:12:43;;;;;;;5.88;2.10;;;;;;;9.26;100.00;99727.47;4998095;28;20422;-95
2023/12/21 10:15:35;;;;;;;6.93;1.80;;;;;;;9.40;100.00;99766.78;4945719;28;20043;-94
2023/12/21 10:18:12;;;;;;;7.35;2.25;;;;;;;9.39;100.00;99743.53;4978408;28;20023;-94
2023/12/21 10:20:49;;;;;;;9.07;2.00;;;;;;;9.54;100.00;99742.25;4978283;28;20105;-93
2023/12/21 10:23:14;;;;;;;10.90;2.05;;;;;;;9.52;100.00;99720.72;4977716;28;20027;-94
2023/12/21 10:25:40;;;;;;;5.43;1.70;;;;;;;9.55;100.00;99723.22;4974331;28;20040;-93
2023/12/21 10:28:22;;;;;;;5.53;1.53;;;;;;;9.60;100.00;99721.31;4978305;28;20035;-94
2023/12/21 10:30:55;;;;;;;6.63;1.60;;;;;;;9.62;100.00;99724.72;4978238;28;20033;-95
2023/12/21 10:33:35;;;;;;;6.82;1.73;;;;;;;9.69;100.00;99720.22;4978510;28;20058;-92
2023/12/21 10:36:13;;;;;;;9.70;2.33;;;;;;;9.64;100.00;99727.25;4978709;28;20030;-93
2023/12/21 10:38:47;;;;;;;5.63;1.65;;;;;;;9.65;100.00;99724.63;4978232;28;20038;-93
2023/12/21 10:41:19;;;;;;;5.07;1.60;;;;;;;9.67;100.00;99733.22;4976982;28;20058;-93
2023/12/21 10:46:41;;;;;;;5.43;1.63;;;;;;;9.72;100.00;99730.50;4979211;28;20049;-94
2023/12/21 10:49:17;;;;;;;4.78;1.58;;;;;;;9.75;100.00;99725.19;4979045;28;20051;-92
2023/12/21 10:55:20;;;;;;;4.70;1.30;;;;;;;9.88;100.00;99736.06;4979035;28;20093;-94
2023/12/21 10:57:51;;;;;;;3.13;1.13;;;;;;;9.77;100.00;99713.06;4977476;28;20118;-93
2023/12/21 11:00:16;;;;;;;6.10;1.55;;;;;;;9.83;100.00;99725.84;4976270;28;20031;-93
2023/12/21 11:02:46;;;;;;;6.23;1.30;;;;;;;9.87;100.00;99724.00;4976940;28;20042;-93
2023/12/21 11:05:34;;;;;;;3.50;1.15;;;;;;;9.86;100.00;99733.50;4989311;28;20088;-90
2023/12/21 11:08:06;;;;;;;1.40;1.00;;;;;;;9.76;100.00;99690.63;4995102;28;20475;-88
2023/12/21 11:10:33;;;;;;;3.72;1.13;;;;;;;9.78;100.00;99701.78;4994782;28;20018;-87
2023/12/21 11:13:10;;;;;;;3.92;1.30;;;;;;;9.68;100.00;99672.72;4995806;28;20033;-89
2023/12/21 11:15:42;;;;;;;7.03;1.45;;;;;;;9.71;100.00;99693.34;4994920;28;20490;-89
2023/12/21 11:18:25;;;;;;;7.72;1.50;;;;;;;9.77;100.00;99709.63;4996152;28;20038;-91
2023/12/21 11:23:51;;;;;;;2.90;0.93;;;;;;;9.75;100.00;99678.56;4988055;28;20031;-91
2023/12/21 11:26:27;;;;;;;6.57;1.27;;;;;;;9.84;100.00;99703.34;4993729;28;20046;-92
2023/12/21 11:29:11;;;;;;;2.88;1.30;;;;;;;9.79;100.00;99671.56;4995442;28;20054;-91
2023/12/21 11:31:52;;;;;;;1.50;1.13;;;;;;;9.87;100.00;99698.91;4995693;28;20123;-91
2023/12/21 11:34:20;;;;;;;3.15;1.30;;;;;;;9.89;100.00;99673.81;4994533;28;20030;-89
2023/12/21 11:36:49;;;;;;;4.45;1.25;;;;;;;9.81;100.00;99678.38;4995163;28;20113;-92
2023/12/21 11:39:38;;;;;;;3.83;1.70;;;;;;;9.92;100.00;99693.59;4995222;28;20033;-92
2023/12/21 11:42:06;;;;;;;4.07;1.40;;;;;;;9.91;100.00;99696.25;4995837;28;20105;-91
2023/12/21 11:44:35;;;;;;;2.75;1.25;;;;;;;9.83;100.00;99681.78;4995205;28;20030;-91
2023/12/21 11:47:01;;;;;;;5.22;1.40;;;;;;;9.90;100.00;99698.00;4995049;28;20026;-92
2023/12/21 11:49:41;;;;;;;4.10;1.47;;;;;;;9.86;100.00;99653.16;4995211;28;20101;-90
2023/12/21 11:52:27;;;;;;;5.28;1.48;;;;;;;9.91;100.00;99668.56;4995287;28;20089;-90
2023/12/21 11:55:00;;;;;;;6.50;1.52;;;;;;;9.99;100.00;99668.31;4994783;28;20049;-91
2023/12/21 12:00:44;;;;;;;2.80;1.10;;;;;;;9.94;100.00;99668.47;4995365;28;20038;-92
2023/12/21 12:03:11;;;;;;;3.80;1.50;;;;;;;9.94;100.00;99665.06;4995002;28;20115;-86
2023/12/21 12:05:37;;;;;;;2.90;1.17;;;;;;;9.85;100.00;99640.25;4993669;28;20031;-86
2023/12/21 12:08:12;;;;;;;3.40;1.30;;;;;;;9.78;100.00;99581.78;4993979;28;20022;-86